sensor_id;sensor_type;location;lat;lon;timestamp;P1;durP1;ratioP1;P2;durP2;ratioP2
55469;SDS011;41334;47.872;16.384;2022-11-04T00:02:48;8.27;;;4.28;;
55469;SDS011;41334;47.872;16.384;2022-11-04T00:05:50;9.55;;;5.35;;
55469;SDS011;41334;47.872;16.384;2022-11-04T00:08:52;5.65;;;3.33;;
55469;SDS011;41334;47.872;16.384;2022-11-04T00:11:54;17.45;;;7.05;;
55469;SDS011;41334;47.872;16.384;2022-11-04T00:15:15;4.38;;;2.22;;
55469;SDS011;41334;47.872;16.384;2022-11-04T00:18:35;19.77;;;8.30;;
55469;SDS011;41334;47.872;16.384;2022-11-04T00:21:36;6.93;;;3.90;;
55469;SDS011;41334;47.872;16.384;2022-11-04T00:24:56;8.48;;;5.35;;
55469;SDS011;41334;47.872;16.384;2022-11-04T00:28:17;8.27;;;4.15;;
55469;SDS011;41334;47.872;16.384;2022-11-04T00:31:37;4.53;;;2.15;;
55469;SDS011;41334;47.872;16.384;2022-11-04T00:34:57;6.07;;;2.53;;
55469;SDS011;41334;47.872;16.384;2022-11-04T00:37:59;10.55;;;4.43;;
55469;SDS011;41334;47.872;16.384;2022-11-04T00:41:01;12.55;;;7.03;;
55469;SDS011;41334;47.872;16.384;2022-11-04T00:44:03;10.13;;;5.72;;
55469;SDS011;41334;47.872;16.384;2022-11-04T00:47:05;8.40;;;3.95;;
55469;SDS011;41334;47.872;16.384;2022-11-04T00:50:06;12.48;;;7.00;;
55469;SDS011;41334;47.872;16.384;2022-11-04T00:53:08;8.18;;;5.38;;
55469;SDS011;41334;47.872;16.384;2022-11-04T00:56:10;10.38;;;6.03;;
55469;SDS011;41334;47.872;16.384;2022-11-04T00:59:12;11.63;;;5.35;;
55469;SDS011;41334;47.872;16.384;2022-11-04T01:02:15;18.30;;;8.60;;
55469;SDS011;41334;47.872;16.384;2022-11-04T01:05:16;4.45;;;2.53;;
55469;SDS011;41334;47.872;16.384;2022-11-04T01:08:18;7.22;;;2.90;;
55469;SDS011;41334;47.872;16.384;2022-11-04T01:11:20;4.97;;;2.78;;
55469;SDS011;41334;47.872;16.384;2022-11-04T01:14:21;8.27;;;4.68;;
55469;SDS011;41334;47.872;16.384;2022-11-04T01:17:23;5.43;;;3.30;;
55469;SDS011;41334;47.872;16.384;2022-11-04T01:20:25;14.27;;;5.30;;
55469;SDS011;41334;47.872;16.384;2022-11-04T01:23:26;6.93;;;4.65;;
55469;SDS011;41334;47.872;16.384;2022-11-04T01:26:28;9.32;;;4.28;;
55469;SDS011;41334;47.872;16.384;2022-11-04T01:29:30;10.23;;;6.00;;
55469;SDS011;41334;47.872;16.384;2022-11-04T01:32:32;5.65;;;4.05;;
55469;SDS011;41334;47.872;16.384;2022-11-04T01:35:34;14.13;;;4.38;;
55469;SDS011;41334;47.872;16.384;2022-11-04T01:38:35;2.88;;;2.00;;
55469;SDS011;41334;47.872;16.384;2022-11-04T01:41:37;2.60;;;1.55;;
55469;SDS011;41334;47.872;16.384;2022-11-04T01:47:45;2.63;;;1.45;;
55469;SDS011;41334;47.872;16.384;2022-11-04T01:50:48;5.15;;;3.13;;
55469;SDS011;41334;47.872;16.384;2022-11-04T01:53:50;13.60;;;5.88;;
55469;SDS011;41334;47.872;16.384;2022-11-04T01:56:54;8.98;;;3.78;;
55469;SDS011;41334;47.872;16.384;2022-11-04T01:59:56;5.55;;;2.75;;
55469;SDS011;41334;47.872;16.384;2022-11-04T02:03:03;2.20;;;1.42;;
55469;SDS011;41334;47.872;16.384;2022-11-04T02:06:06;13.77;;;6.45;;
55469;SDS011;41334;47.872;16.384;2022-11-04T02:09:09;14.30;;;6.47;;
55469;SDS011;41334;47.872;16.384;2022-11-04T02:12:11;12.55;;;5.05;;
55469;SDS011;41334;47.872;16.384;2022-11-04T02:47:04;12.90;;;5.32;;
55469;SDS011;41334;47.872;16.384;2022-11-04T02:53:33;9.32;;;5.07;;
55469;SDS011;41334;47.872;16.384;2022-11-04T02:56:31;11.20;;;5.57;;
55469;SDS011;41334;47.872;16.384;2022-11-04T02:59:41;3.50;;;2.20;;
55469;SDS011;41334;47.872;16.384;2022-11-04T03:02:55;9.90;;;3.42;;
55469;SDS011;41334;47.872;16.384;2022-11-04T03:05:58;17.23;;;7.88;;
55469;SDS011;41334;47.872;16.384;2022-11-04T03:09:01;10.60;;;5.32;;
55469;SDS011;41334;47.872;16.384;2022-11-04T03:12:08;4.65;;;3.20;;
55469;SDS011;41334;47.872;16.384;2022-11-04T03:15:16;9.35;;;5.65;;
55469;SDS011;41334;47.872;16.384;2022-11-04T03:21:23;20.92;;;7.57;;
55469;SDS011;41334;47.872;16.384;2022-11-04T03:24:26;5.70;;;2.95;;
55469;SDS011;41334;47.872;16.384;2022-11-04T03:30:36;7.90;;;3.55;;
55469;SDS011;41334;47.872;16.384;2022-11-04T03:33:39;9.68;;;4.30;;
55469;SDS011;41334;47.872;16.384;2022-11-04T03:36:43;12.77;;;7.38;;
55469;SDS011;41334;47.872;16.384;2022-11-04T03:39:45;5.20;;;3.33;;
55469;SDS011;41334;47.872;16.384;2022-11-04T03:43:10;10.40;;;4.10;;
55469;SDS011;41334;47.872;16.384;2022-11-04T03:46:09;13.98;;;6.80;;
55469;SDS011;41334;47.872;16.384;2022-11-04T03:49:11;6.38;;;3.05;;
55469;SDS011;41334;47.872;16.384;2022-11-04T03:52:13;12.65;;;5.32;;
55469;SDS011;41334;47.872;16.384;2022-11-04T03:55:16;5.90;;;3.35;;
55469;SDS011;41334;47.872;16.384;2022-11-04T04:07:34;12.10;;;5.85;;
55469;SDS011;41334;47.872;16.384;2022-11-04T04:14:04;11.00;;;5.60;;
55469;SDS011;41334;47.872;16.384;2022-11-04T04:20:30;11.23;;;5.10;;
55469;SDS011;41334;47.872;16.384;2022-11-04T04:23:33;9.70;;;3.90;;
55469;SDS011;41334;47.872;16.384;2022-11-04T04:26:55;9.05;;;4.97;;
55469;SDS011;41334;47.872;16.384;2022-11-04T04:30:15;7.57;;;3.97;;
55469;SDS011;41334;47.872;16.384;2022-11-04T04:33:17;5.20;;;3.10;;
55469;SDS011;41334;47.872;16.384;2022-11-04T04:36:19;13.68;;;5.35;;
55469;SDS011;41334;47.872;16.384;2022-11-04T04:39:22;11.07;;;5.78;;
55469;SDS011;41334;47.872;16.384;2022-11-04T04:42:44;23.15;;;6.45;;
55469;SDS011;41334;47.872;16.384;2022-11-04T04:46:20;15.38;;;5.72;;
55469;SDS011;41334;47.872;16.384;2022-11-04T04:49:22;12.55;;;6.80;;
55469;SDS011;41334;47.872;16.384;2022-11-04T04:52:30;16.02;;;6.75;;
55469;SDS011;41334;47.872;16.384;2022-11-04T04:55:32;12.00;;;6.15;;
55469;SDS011;41334;47.872;16.384;2022-11-04T04:58:41;11.85;;;5.82;;
55469;SDS011;41334;47.872;16.384;2022-11-04T05:01:43;8.85;;;5.15;;
55469;SDS011;41334;47.872;16.384;2022-11-04T05:04:45;23.77;;;7.53;;
55469;SDS011;41334;47.872;16.384;2022-11-04T05:07:46;7.18;;;3.58;;
55469;SDS011;41334;47.872;16.384;2022-11-04T05:10:49;6.15;;;3.38;;
55469;SDS011;41334;47.872;16.384;2022-11-04T05:13:51;1.13;;;0.93;;
55469;SDS011;41334;47.872;16.384;2022-11-04T05:16:52;12.65;;;6.82;;
55469;SDS011;41334;47.872;16.384;2022-11-04T05:19:54;3.83;;;2.05;;
55469;SDS011;41334;47.872;16.384;2022-11-04T05:22:56;6.50;;;3.30;;
55469;SDS011;41334;47.872;16.384;2022-11-04T05:25:57;11.57;;;5.60;;
55469;SDS011;41334;47.872;16.384;2022-11-04T05:28:59;32.30;;;7.20;;
55469;SDS011;41334;47.872;16.384;2022-11-04T05:32:01;15.93;;;6.43;;
55469;SDS011;41334;47.872;16.384;2022-11-04T05:35:03;9.32;;;4.50;;
55469;SDS011;41334;47.872;16.384;2022-11-04T05:38:05;13.48;;;7.25;;
55469;SDS011;41334;47.872;16.384;2022-11-04T05:41:07;16.42;;;7.82;;
55469;SDS011;41334;47.872;16.384;2022-11-04T05:44:09;19.67;;;8.63;;
55469;SDS011;41334;47.872;16.384;2022-11-04T05:47:11;14.30;;;7.95;;
55469;SDS011;41334;47.872;16.384;2022-11-04T05:50:13;17.98;;;9.43;;
55469;SDS011;41334;47.872;16.384;2022-11-04T05:53:14;17.88;;;8.40;;
55469;SDS011;41334;47.872;16.384;2022-11-04T05:56:16;18.08;;;9.65;;
55469;SDS011;41334;47.872;16.384;2022-11-04T05:59:18;18.48;;;9.60;;
55469;SDS011;41334;47.872;16.384;2022-11-04T06:02:19;19.98;;;10.75;;
55469;SDS011;41334;47.872;16.384;2022-11-04T06:05:22;19.27;;;10.90;;
55469;SDS011;41334;47.872;16.384;2022-11-04T06:08:23;17.98;;;9.45;;
55469;SDS011;41334;47.872;16.384;2022-11-04T06:11:25;17.90;;;9.57;;
55469;SDS011;41334;47.872;16.384;2022-11-04T06:14:27;15.73;;;9.05;;
55469;SDS011;41334;47.872;16.384;2022-11-04T06:17:29;26.60;;;9.95;;
55469;SDS011;41334;47.872;16.384;2022-11-04T06:20:30;21.05;;;9.63;;
55469;SDS011;41334;47.872;16.384;2022-11-04T06:23:32;15.70;;;9.38;;
55469;SDS011;41334;47.872;16.384;2022-11-04T06:26:34;19.85;;;10.05;;
55469;SDS011;41334;47.872;16.384;2022-11-04T06:29:36;18.98;;;8.73;;
55469;SDS011;41334;47.872;16.384;2022-11-04T06:32:41;19.03;;;9.47;;
55469;SDS011;41334;47.872;16.384;2022-11-04T06:35:43;18.75;;;8.93;;
55469;SDS011;41334;47.872;16.384;2022-11-04T06:38:44;16.27;;;9.73;;
55469;SDS011;41334;47.872;16.384;2022-11-04T06:41:46;19.25;;;9.38;;
55469;SDS011;41334;47.872;16.384;2022-11-04T06:44:52;20.23;;;10.98;;
55469;SDS011;41334;47.872;16.384;2022-11-04T06:47:53;20.00;;;9.68;;
55469;SDS011;41334;47.872;16.384;2022-11-04T06:50:58;16.23;;;9.15;;
55469;SDS011;41334;47.872;16.384;2022-11-04T06:54:00;16.77;;;9.43;;
55469;SDS011;41334;47.872;16.384;2022-11-04T06:57:01;18.80;;;10.63;;
55469;SDS011;41334;47.872;16.384;2022-11-04T07:00:04;19.02;;;9.15;;
55469;SDS011;41334;47.872;16.384;2022-11-04T07:03:06;17.52;;;9.77;;
55469;SDS011;41334;47.872;16.384;2022-11-04T07:06:09;17.20;;;9.73;;
55469;SDS011;41334;47.872;16.384;2022-11-04T07:09:12;19.85;;;10.80;;
55469;SDS011;41334;47.872;16.384;2022-11-04T07:12:14;24.23;;;10.07;;
55469;SDS011;41334;47.872;16.384;2022-11-04T07:15:15;16.45;;;9.43;;
55469;SDS011;41334;47.872;16.384;2022-11-04T07:18:17;17.65;;;9.57;;
55469;SDS011;41334;47.872;16.384;2022-11-04T07:21:19;10.43;;;5.65;;
55469;SDS011;41334;47.872;16.384;2022-11-04T07:24:20;22.35;;;10.55;;
55469;SDS011;41334;47.872;16.384;2022-11-04T07:27:22;20.73;;;10.02;;
55469;SDS011;41334;47.872;16.384;2022-11-04T07:30:26;18.23;;;9.68;;
55469;SDS011;41334;47.872;16.384;2022-11-04T07:33:28;21.90;;;10.35;;
55469;SDS011;41334;47.872;16.384;2022-11-04T07:36:29;22.33;;;9.88;;
55469;SDS011;41334;47.872;16.384;2022-11-04T07:39:31;19.25;;;9.82;;
55469;SDS011;41334;47.872;16.384;2022-11-04T07:42:33;22.15;;;10.73;;
55469;SDS011;41334;47.872;16.384;2022-11-04T07:45:40;23.45;;;10.57;;
55469;SDS011;41334;47.872;16.384;2022-11-04T07:48:41;24.95;;;10.50;;
55469;SDS011;41334;47.872;16.384;2022-11-04T07:51:43;22.83;;;9.43;;
55469;SDS011;41334;47.872;16.384;2022-11-04T07:54:45;21.27;;;10.15;;
55469;SDS011;41334;47.872;16.384;2022-11-04T07:57:47;20.10;;;10.32;;
55469;SDS011;41334;47.872;16.384;2022-11-04T08:00:48;17.17;;;8.60;;
55469;SDS011;41334;47.872;16.384;2022-11-04T08:03:50;18.75;;;9.55;;
55469;SDS011;41334;47.872;16.384;2022-11-04T08:06:52;29.08;;;11.32;;
55469;SDS011;41334;47.872;16.384;2022-11-04T08:09:54;23.55;;;10.70;;
55469;SDS011;41334;47.872;16.384;2022-11-04T08:12:55;22.10;;;11.45;;
55469;SDS011;41334;47.872;16.384;2022-11-04T08:16:00;26.33;;;10.77;;
55469;SDS011;41334;47.872;16.384;2022-11-04T08:19:03;26.53;;;10.90;;
55469;SDS011;41334;47.872;16.384;2022-11-04T08:22:05;20.55;;;10.02;;
55469;SDS011;41334;47.872;16.384;2022-11-04T08:25:06;20.70;;;10.05;;
55469;SDS011;41334;47.872;16.384;2022-11-04T08:28:08;19.35;;;9.15;;
55469;SDS011;41334;47.872;16.384;2022-11-04T08:31:17;15.90;;;7.32;;
55469;SDS011;41334;47.872;16.384;2022-11-04T08:34:19;11.52;;;6.60;;
55469;SDS011;41334;47.872;16.384;2022-11-04T08:37:21;21.67;;;8.25;;
55469;SDS011;41334;47.872;16.384;2022-11-04T08:40:22;12.10;;;6.18;;
55469;SDS011;41334;47.872;16.384;2022-11-04T08:43:25;12.65;;;6.10;;
55469;SDS011;41334;47.872;16.384;2022-11-04T08:46:27;12.77;;;6.25;;
55469;SDS011;41334;47.872;16.384;2022-11-04T08:49:29;11.57;;;6.15;;
55469;SDS011;41334;47.872;16.384;2022-11-04T08:52:31;12.38;;;6.38;;
55469;SDS011;41334;47.872;16.384;2022-11-04T08:55:32;10.63;;;5.35;;
55469;SDS011;41334;47.872;16.384;2022-11-04T08:58:34;11.65;;;5.80;;
55469;SDS011;41334;47.872;16.384;2022-11-04T09:01:36;11.18;;;4.70;;
55469;SDS011;41334;47.872;16.384;2022-11-04T09:04:37;8.32;;;4.22;;
55469;SDS011;41334;47.872;16.384;2022-11-04T09:07:40;9.25;;;4.32;;
55469;SDS011;41334;47.872;16.384;2022-11-04T09:10:45;6.88;;;3.67;;
55469;SDS011;41334;47.872;16.384;2022-11-04T09:13:47;4.32;;;2.17;;
55469;SDS011;41334;47.872;16.384;2022-11-04T09:16:48;7.50;;;2.70;;
55469;SDS011;41334;47.872;16.384;2022-11-04T09:19:50;4.90;;;2.90;;
55469;SDS011;41334;47.872;16.384;2022-11-04T09:22:51;6.38;;;3.17;;
55469;SDS011;41334;47.872;16.384;2022-11-04T09:25:54;4.25;;;2.13;;
55469;SDS011;41334;47.872;16.384;2022-11-04T09:28:57;5.22;;;2.80;;
55469;SDS011;41334;47.872;16.384;2022-11-04T09:32:00;5.82;;;3.25;;
55469;SDS011;41334;47.872;16.384;2022-11-04T09:35:01;6.70;;;3.08;;
55469;SDS011;41334;47.872;16.384;2022-11-04T09:38:03;4.50;;;2.75;;
55469;SDS011;41334;47.872;16.384;2022-11-04T09:44:42;7.25;;;2.35;;
55469;SDS011;41334;47.872;16.384;2022-11-04T09:48:06;3.47;;;2.25;;
55469;SDS011;41334;47.872;16.384;2022-11-04T09:51:09;4.22;;;2.30;;
55469;SDS011;41334;47.872;16.384;2022-11-04T09:54:37;5.05;;;2.67;;
55469;SDS011;41334;47.872;16.384;2022-11-04T09:57:50;8.60;;;4.07;;
55469;SDS011;41334;47.872;16.384;2022-11-04T10:01:02;7.63;;;3.70;;
55469;SDS011;41334;47.872;16.384;2022-11-04T10:04:19;4.80;;;2.88;;
55469;SDS011;41334;47.872;16.384;2022-11-04T10:23:21;8.40;;;3.60;;
55469;SDS011;41334;47.872;16.384;2022-11-04T10:26:25;7.45;;;3.47;;
55469;SDS011;41334;47.872;16.384;2022-11-04T10:32:40;6.30;;;3.47;;
55469;SDS011;41334;47.872;16.384;2022-11-04T10:35:48;8.70;;;4.43;;
55469;SDS011;41334;47.872;16.384;2022-11-04T10:38:52;11.43;;;4.53;;
55469;SDS011;41334;47.872;16.384;2022-11-04T10:41:57;8.37;;;3.27;;
55469;SDS011;41334;47.872;16.384;2022-11-04T10:44:59;14.30;;;4.72;;
55469;SDS011;41334;47.872;16.384;2022-11-04T10:48:06;11.60;;;5.20;;
55469;SDS011;41334;47.872;16.384;2022-11-04T10:51:10;8.50;;;4.07;;
55469;SDS011;41334;47.872;16.384;2022-11-04T10:54:12;8.18;;;4.90;;
55469;SDS011;41334;47.872;16.384;2022-11-04T10:57:25;12.52;;;5.57;;
55469;SDS011;41334;47.872;16.384;2022-11-04T11:00:37;12.32;;;5.28;;
55469;SDS011;41334;47.872;16.384;2022-11-04T11:03:39;8.55;;;4.03;;
55469;SDS011;41334;47.872;16.384;2022-11-04T11:06:41;12.48;;;5.47;;
55469;SDS011;41334;47.872;16.384;2022-11-04T11:09:52;8.68;;;4.93;;
55469;SDS011;41334;47.872;16.384;2022-11-04T11:12:58;9.45;;;4.85;;
55469;SDS011;41334;47.872;16.384;2022-11-04T11:16:03;9.10;;;5.25;;
55469;SDS011;41334;47.872;16.384;2022-11-04T11:25:33;11.45;;;5.65;;
55469;SDS011;41334;47.872;16.384;2022-11-04T11:28:35;9.20;;;5.57;;
55469;SDS011;41334;47.872;16.384;2022-11-04T11:31:38;13.85;;;5.78;;
55469;SDS011;41334;47.872;16.384;2022-11-04T11:34:40;11.55;;;5.47;;
55469;SDS011;41334;47.872;16.384;2022-11-04T11:37:45;10.43;;;4.95;;
55469;SDS011;41334;47.872;16.384;2022-11-04T11:40:48;10.70;;;4.80;;
55469;SDS011;41334;47.872;16.384;2022-11-04T11:44:23;9.38;;;4.20;;
55469;SDS011;41334;47.872;16.384;2022-11-04T11:50:30;2.75;;;0.73;;
55469;SDS011;41334;47.872;16.384;2022-11-04T11:53:34;8.77;;;4.43;;
55469;SDS011;41334;47.872;16.384;2022-11-04T11:56:38;4.28;;;2.53;;
55469;SDS011;41334;47.872;16.384;2022-11-04T12:00:04;4.40;;;2.10;;
55469;SDS011;41334;47.872;16.384;2022-11-04T12:03:41;6.50;;;3.20;;
55469;SDS011;41334;47.872;16.384;2022-11-04T12:07:10;2.95;;;1.58;;
55469;SDS011;41334;47.872;16.384;2022-11-04T12:13:57;4.15;;;0.82;;
55469;SDS011;41334;47.872;16.384;2022-11-04T12:17:09;3.22;;;1.35;;
55469;SDS011;41334;47.872;16.384;2022-11-04T12:23:26;2.05;;;1.15;;
55469;SDS011;41334;47.872;16.384;2022-11-04T12:33:17;1.67;;;0.90;;
55469;SDS011;41334;47.872;16.384;2022-11-04T12:36:29;3.00;;;0.70;;
55469;SDS011;41334;47.872;16.384;2022-11-04T12:55:31;5.85;;;0.70;;
55469;SDS011;41334;47.872;16.384;2022-11-04T13:01:50;2.13;;;1.30;;
55469;SDS011;41334;47.872;16.384;2022-11-04T13:11:14;3.75;;;1.63;;
55469;SDS011;41334;47.872;16.384;2022-11-04T13:14:25;0.45;;;0.32;;
55469;SDS011;41334;47.872;16.384;2022-11-04T13:20:34;3.42;;;1.23;;
55469;SDS011;41334;47.872;16.384;2022-11-04T13:26:50;1.30;;;0.77;;
55469;SDS011;41334;47.872;16.384;2022-11-04T13:30:24;2.63;;;1.08;;
55469;SDS011;41334;47.872;16.384;2022-11-04T13:33:23;5.93;;;1.15;;
55469;SDS011;41334;47.872;16.384;2022-11-04T13:36:35;1.17;;;0.43;;
55469;SDS011;41334;47.872;16.384;2022-11-04T13:39:45;1.33;;;0.70;;
55469;SDS011;41334;47.872;16.384;2022-11-04T13:45:53;1.17;;;0.60;;
55469;SDS011;41334;47.872;16.384;2022-11-04T13:52:07;1.60;;;0.80;;
55469;SDS011;41334;47.872;16.384;2022-11-04T13:55:14;1.60;;;0.75;;
55469;SDS011;41334;47.872;16.384;2022-11-04T13:58:24;2.38;;;1.05;;
55469;SDS011;41334;47.872;16.384;2022-11-04T14:01:28;3.10;;;1.40;;
55469;SDS011;41334;47.872;16.384;2022-11-04T14:04:30;6.15;;;2.60;;
55469;SDS011;41334;47.872;16.384;2022-11-04T14:08:07;1.00;;;0.75;;
55469;SDS011;41334;47.872;16.384;2022-11-04T14:11:08;2.90;;;1.67;;
55469;SDS011;41334;47.872;16.384;2022-11-04T14:14:15;1.38;;;0.77;;
55469;SDS011;41334;47.872;16.384;2022-11-04T14:20:37;0.95;;;0.38;;
55469;SDS011;41334;47.872;16.384;2022-11-04T14:23:57;1.23;;;0.50;;
55469;SDS011;41334;47.872;16.384;2022-11-04T14:27:02;1.50;;;0.60;;
55469;SDS011;41334;47.872;16.384;2022-11-04T14:30:05;2.28;;;0.60;;
55469;SDS011;41334;47.872;16.384;2022-11-04T14:39:24;0.03;;;0.00;;
55469;SDS011;41334;47.872;16.384;2022-11-04T14:45:48;0.60;;;0.32;;
55469;SDS011;41334;47.872;16.384;2022-11-04T14:48:50;0.38;;;0.15;;
55469;SDS011;41334;47.872;16.384;2022-11-04T14:51:52;0.20;;;0.10;;
55469;SDS011;41334;47.872;16.384;2022-11-04T14:55:10;2.17;;;0.47;;
55469;SDS011;41334;47.872;16.384;2022-11-04T15:01:21;2.20;;;0.40;;
55469;SDS011;41334;47.872;16.384;2022-11-04T15:04:30;1.75;;;0.70;;
55469;SDS011;41334;47.872;16.384;2022-11-04T15:07:37;1.58;;;0.60;;
55469;SDS011;41334;47.872;16.384;2022-11-04T15:10:39;1.05;;;0.50;;
55469;SDS011;41334;47.872;16.384;2022-11-04T15:13:48;0.55;;;0.25;;
55469;SDS011;41334;47.872;16.384;2022-11-04T15:16:50;0.30;;;0.10;;
55469;SDS011;41334;47.872;16.384;2022-11-04T15:19:53;1.40;;;0.15;;
55469;SDS011;41334;47.872;16.384;2022-11-04T15:22:56;0.17;;;0.08;;
55469;SDS011;41334;47.872;16.384;2022-11-04T15:25:59;0.20;;;0.10;;
55469;SDS011;41334;47.872;16.384;2022-11-04T15:29:06;0.65;;;0.50;;
55469;SDS011;41334;47.872;16.384;2022-11-04T15:32:14;0.43;;;0.10;;
55469;SDS011;41334;47.872;16.384;2022-11-04T15:35:17;0.35;;;0.17;;
55469;SDS011;41334;47.872;16.384;2022-11-04T15:38:18;0.10;;;0.00;;
55469;SDS011;41334;47.872;16.384;2022-11-04T15:41:21;0.20;;;0.10;;
55469;SDS011;41334;47.872;16.384;2022-11-04T15:44:49;0.70;;;0.38;;
55469;SDS011;41334;47.872;16.384;2022-11-04T15:54:20;1.45;;;0.32;;
55469;SDS011;41334;47.872;16.384;2022-11-04T15:57:24;3.35;;;1.08;;
55469;SDS011;41334;47.872;16.384;2022-11-04T16:00:27;0.90;;;0.38;;
55469;SDS011;41334;47.872;16.384;2022-11-04T16:03:29;2.22;;;0.57;;
55469;SDS011;41334;47.872;16.384;2022-11-04T16:06:35;2.35;;;0.45;;
55469;SDS011;41334;47.872;16.384;2022-11-04T16:09:47;1.48;;;0.75;;
55469;SDS011;41334;47.872;16.384;2022-11-04T16:13:16;1.50;;;0.40;;
55469;SDS011;41334;47.872;16.384;2022-11-04T16:16:22;0.68;;;0.25;;
55469;SDS011;41334;47.872;16.384;2022-11-04T16:19:26;4.47;;;0.38;;
55469;SDS011;41334;47.872;16.384;2022-11-04T16:22:33;1.25;;;0.40;;
55469;SDS011;41334;47.872;16.384;2022-11-04T16:25:37;4.78;;;1.88;;
55469;SDS011;41334;47.872;16.384;2022-11-04T16:28:39;2.10;;;0.45;;
55469;SDS011;41334;47.872;16.384;2022-11-04T16:31:41;3.75;;;1.30;;
55469;SDS011;41334;47.872;16.384;2022-11-04T16:34:44;0.50;;;0.32;;
55469;SDS011;41334;47.872;16.384;2022-11-04T16:37:46;0.00;;;0.00;;
55469;SDS011;41334;47.872;16.384;2022-11-04T16:40:48;0.47;;;0.25;;
55469;SDS011;41334;47.872;16.384;2022-11-04T16:43:50;0.63;;;0.17;;
55469;SDS011;41334;47.872;16.384;2022-11-04T16:46:52;0.20;;;0.10;;
55469;SDS011;41334;47.872;16.384;2022-11-04T16:49:58;0.28;;;0.10;;
55469;SDS011;41334;47.872;16.384;2022-11-04T16:53:00;0.20;;;0.17;;
55469;SDS011;41334;47.872;16.384;2022-11-04T16:56:02;0.52;;;0.25;;
55469;SDS011;41334;47.872;16.384;2022-11-04T16:59:04;0.32;;;0.20;;
55469;SDS011;41334;47.872;16.384;2022-11-04T17:02:21;0.25;;;0.10;;
55469;SDS011;41334;47.872;16.384;2022-11-04T17:05:24;0.17;;;0.05;;
55469;SDS011;41334;47.872;16.384;2022-11-04T17:08:25;1.25;;;0.60;;
55469;SDS011;41334;47.872;16.384;2022-11-04T17:11:27;0.20;;;0.05;;
55469;SDS011;41334;47.872;16.384;2022-11-04T17:14:30;0.40;;;0.13;;
55469;SDS011;41334;47.872;16.384;2022-11-04T17:17:32;1.75;;;0.68;;
55469;SDS011;41334;47.872;16.384;2022-11-04T17:20:33;0.50;;;0.25;;
55469;SDS011;41334;47.872;16.384;2022-11-04T17:23:35;0.80;;;0.30;;
55469;SDS011;41334;47.872;16.384;2022-11-04T17:26:37;0.10;;;0.10;;
55469;SDS011;41334;47.872;16.384;2022-11-04T17:29:38;0.75;;;0.43;;
55469;SDS011;41334;47.872;16.384;2022-11-04T17:32:43;0.55;;;0.35;;
55469;SDS011;41334;47.872;16.384;2022-11-04T17:35:47;0.30;;;0.10;;
55469;SDS011;41334;47.872;16.384;2022-11-04T17:38:49;0.32;;;0.20;;
55469;SDS011;41334;47.872;16.384;2022-11-04T17:41:51;3.53;;;1.67;;
55469;SDS011;41334;47.872;16.384;2022-11-04T17:45:11;3.20;;;1.25;;
55469;SDS011;41334;47.872;16.384;2022-11-04T17:48:13;1.13;;;0.57;;
55469;SDS011;41334;47.872;16.384;2022-11-04T17:51:15;0.85;;;0.60;;
55469;SDS011;41334;47.872;16.384;2022-11-04T17:54:18;1.25;;;0.70;;
55469;SDS011;41334;47.872;16.384;2022-11-04T17:57:19;1.08;;;0.45;;
55469;SDS011;41334;47.872;16.384;2022-11-04T18:00:21;0.57;;;0.38;;
55469;SDS011;41334;47.872;16.384;2022-11-04T18:03:26;1.58;;;0.80;;
55469;SDS011;41334;47.872;16.384;2022-11-04T18:06:31;1.23;;;0.57;;
55469;SDS011;41334;47.872;16.384;2022-11-04T18:09:33;0.40;;;0.30;;
55469;SDS011;41334;47.872;16.384;2022-11-04T18:12:37;0.47;;;0.20;;
55469;SDS011;41334;47.872;16.384;2022-11-04T18:15:41;1.08;;;0.20;;
55469;SDS011;41334;47.872;16.384;2022-11-04T18:18:43;0.65;;;0.30;;
55469;SDS011;41334;47.872;16.384;2022-11-04T18:21:44;0.60;;;0.20;;
55469;SDS011;41334;47.872;16.384;2022-11-04T18:24:46;0.55;;;0.30;;
55469;SDS011;41334;47.872;16.384;2022-11-04T18:27:48;0.28;;;0.10;;
55469;SDS011;41334;47.872;16.384;2022-11-04T18:30:50;0.52;;;0.22;;
55469;SDS011;41334;47.872;16.384;2022-11-04T18:33:51;1.42;;;0.50;;
55469;SDS011;41334;47.872;16.384;2022-11-04T18:36:53;0.63;;;0.22;;
55469;SDS011;41334;47.872;16.384;2022-11-04T18:39:56;1.25;;;0.52;;
55469;SDS011;41334;47.872;16.384;2022-11-04T18:42:58;3.20;;;1.48;;
55469;SDS011;41334;47.872;16.384;2022-11-04T18:46:10;1.35;;;0.50;;
55469;SDS011;41334;47.872;16.384;2022-11-04T18:49:12;1.60;;;0.68;;
55469;SDS011;41334;47.872;16.384;2022-11-04T18:52:14;1.70;;;0.77;;
55469;SDS011;41334;47.872;16.384;2022-11-04T18:55:16;7.30;;;2.97;;
55469;SDS011;41334;47.872;16.384;2022-11-04T18:58:17;0.00;;;0.00;;
55469;SDS011;41334;47.872;16.384;2022-11-04T19:01:22;3.55;;;1.10;;
55469;SDS011;41334;47.872;16.384;2022-11-04T19:04:24;1.20;;;0.50;;
55469;SDS011;41334;47.872;16.384;2022-11-04T19:07:26;0.17;;;0.10;;
55469;SDS011;41334;47.872;16.384;2022-11-04T19:10:27;0.52;;;0.25;;
55469;SDS011;41334;47.872;16.384;2022-11-04T19:13:29;0.73;;;0.17;;
55469;SDS011;41334;47.872;16.384;2022-11-04T19:16:31;0.30;;;0.30;;
55469;SDS011;41334;47.872;16.384;2022-11-04T19:19:32;0.00;;;0.00;;
55469;SDS011;41334;47.872;16.384;2022-11-04T19:22:34;0.32;;;0.20;;
55469;SDS011;41334;47.872;16.384;2022-11-04T19:25:39;0.22;;;0.13;;
55469;SDS011;41334;47.872;16.384;2022-11-04T19:28:42;1.25;;;0.77;;
55469;SDS011;41334;47.872;16.384;2022-11-04T19:31:49;0.60;;;0.30;;
55469;SDS011;41334;47.872;16.384;2022-11-04T19:34:50;0.13;;;0.03;;
55469;SDS011;41334;47.872;16.384;2022-11-04T19:37:52;0.95;;;0.40;;
55469;SDS011;41334;47.872;16.384;2022-11-04T19:40:54;1.45;;;0.40;;
55469;SDS011;41334;47.872;16.384;2022-11-04T19:43:56;1.83;;;0.47;;
55469;SDS011;41334;47.872;16.384;2022-11-04T19:46:57;0.25;;;0.20;;
55469;SDS011;41334;47.872;16.384;2022-11-04T19:49:59;1.05;;;0.30;;
55469;SDS011;41334;47.872;16.384;2022-11-04T19:53:01;0.10;;;0.00;;
55469;SDS011;41334;47.872;16.384;2022-11-04T19:56:03;0.22;;;0.08;;
55469;SDS011;41334;47.872;16.384;2022-11-04T19:59:05;0.60;;;0.20;;
55469;SDS011;41334;47.872;16.384;2022-11-04T20:02:08;0.52;;;0.30;;
55469;SDS011;41334;47.872;16.384;2022-11-04T20:05:10;0.20;;;0.10;;
55469;SDS011;41334;47.872;16.384;2022-11-04T20:08:12;0.22;;;0.17;;
55469;SDS011;41334;47.872;16.384;2022-11-04T20:11:14;0.90;;;0.28;;
55469;SDS011;41334;47.872;16.384;2022-11-04T20:14:16;0.55;;;0.10;;
55469;SDS011;41334;47.872;16.384;2022-11-04T20:17:18;0.30;;;0.08;;
55469;SDS011;41334;47.872;16.384;2022-11-04T20:20:19;0.10;;;0.10;;
55469;SDS011;41334;47.872;16.384;2022-11-04T20:23:21;0.05;;;0.00;;
55469;SDS011;41334;47.872;16.384;2022-11-04T20:26:23;0.00;;;0.00;;
55469;SDS011;41334;47.872;16.384;2022-11-04T20:29:24;0.85;;;0.20;;
55469;SDS011;41334;47.872;16.384;2022-11-04T20:32:26;0.32;;;0.17;;
55469;SDS011;41334;47.872;16.384;2022-11-04T20:35:28;0.43;;;0.10;;
55469;SDS011;41334;47.872;16.384;2022-11-04T20:38:29;0.60;;;0.20;;
55469;SDS011;41334;47.872;16.384;2022-11-04T20:41:31;0.75;;;0.22;;
55469;SDS011;41334;47.872;16.384;2022-11-04T20:44:33;0.10;;;0.10;;
55469;SDS011;41334;47.872;16.384;2022-11-04T20:47:35;0.00;;;0.00;;
55469;SDS011;41334;47.872;16.384;2022-11-04T20:50:37;0.00;;;0.00;;
55469;SDS011;41334;47.872;16.384;2022-11-04T20:53:39;0.15;;;0.03;;
55469;SDS011;41334;47.872;16.384;2022-11-04T20:56:41;0.00;;;0.00;;